sensor_id;sensor_type;location;lat;lon;timestamp;P1;durP1;ratioP1;P2;durP2;ratioP2
43160;SDS011;40968;52.342;5.528;2022-09-01T00:01:43;5.13;;;2.10;;
43160;SDS011;40968;52.342;5.528;2022-09-01T00:04:12;9.73;;;2.60;;
43160;SDS011;40968;52.342;5.528;2022-09-01T00:06:41;4.15;;;1.80;;
43160;SDS011;40968;52.342;5.528;2022-09-01T00:09:09;5.65;;;2.00;;
43160;SDS011;40968;52.342;5.528;2022-09-01T00:11:39;13.15;;;2.20;;
43160;SDS011;40968;52.342;5.528;2022-09-01T00:14:07;7.07;;;2.17;;
43160;SDS011;40968;52.342;5.528;2022-09-01T00:16:35;4.35;;;1.75;;
43160;SDS011;40968;52.342;5.528;2022-09-01T00:19:02;3.90;;;2.20;;
43160;SDS011;40968;52.342;5.528;2022-09-01T00:21:31;8.10;;;2.05;;
43160;SDS011;40968;52.342;5.528;2022-09-01T00:24:03;6.85;;;2.20;;
43160;SDS011;40968;52.342;5.528;2022-09-01T00:26:30;7.68;;;2.30;;
43160;SDS011;40968;52.342;5.528;2022-09-01T00:28:58;7.60;;;2.13;;
43160;SDS011;40968;52.342;5.528;2022-09-01T00:31:25;6.70;;;1.90;;
43160;SDS011;40968;52.342;5.528;2022-09-01T00:33:52;9.95;;;2.50;;
43160;SDS011;40968;52.342;5.528;2022-09-01T00:36:19;6.55;;;2.05;;
43160;SDS011;40968;52.342;5.528;2022-09-01T00:38:46;5.75;;;2.20;;
43160;SDS011;40968;52.342;5.528;2022-09-01T00:41:14;9.27;;;2.22;;
43160;SDS011;40968;52.342;5.528;2022-09-01T00:43:43;4.18;;;2.10;;
43160;SDS011;40968;52.342;5.528;2022-09-01T00:46:14;3.78;;;1.88;;
43160;SDS011;40968;52.342;5.528;2022-09-01T00:48:42;7.00;;;2.00;;
43160;SDS011;40968;52.342;5.528;2022-09-01T00:51:10;5.90;;;2.30;;
43160;SDS011;40968;52.342;5.528;2022-09-01T00:53:38;15.63;;;2.88;;
43160;SDS011;40968;52.342;5.528;2022-09-01T00:56:08;5.30;;;2.00;;
43160;SDS011;40968;52.342;5.528;2022-09-01T00:58:35;8.43;;;2.22;;
43160;SDS011;40968;52.342;5.528;2022-09-01T01:01:03;5.60;;;2.33;;
43160;SDS011;40968;52.342;5.528;2022-09-01T01:03:33;8.30;;;2.17;;
43160;SDS011;40968;52.342;5.528;2022-09-01T01:06:01;6.03;;;2.40;;
43160;SDS011;40968;52.342;5.528;2022-09-01T01:08:32;5.32;;;2.00;;
43160;SDS011;40968;52.342;5.528;2022-09-01T01:11:02;7.70;;;2.35;;
43160;SDS011;40968;52.342;5.528;2022-09-01T01:13:31;9.95;;;2.50;;
43160;SDS011;40968;52.342;5.528;2022-09-01T01:16:12;5.15;;;2.40;;
43160;SDS011;40968;52.342;5.528;2022-09-01T01:18:41;7.97;;;2.00;;
43160;SDS011;40968;52.342;5.528;2022-09-01T01:21:09;7.20;;;2.70;;
43160;SDS011;40968;52.342;5.528;2022-09-01T01:24:00;5.38;;;2.40;;
43160;SDS011;40968;52.342;5.528;2022-09-01T01:26:33;7.18;;;2.60;;
43160;SDS011;40968;52.342;5.528;2022-09-01T01:28:59;5.85;;;2.55;;
43160;SDS011;40968;52.342;5.528;2022-09-01T01:31:27;5.55;;;1.90;;
43160;SDS011;40968;52.342;5.528;2022-09-01T01:33:54;6.03;;;2.50;;
43160;SDS011;40968;52.342;5.528;2022-09-01T01:36:23;5.30;;;2.20;;
43160;SDS011;40968;52.342;5.528;2022-09-01T01:38:56;6.55;;;1.85;;
43160;SDS011;40968;52.342;5.528;2022-09-01T01:41:26;4.70;;;1.52;;
43160;SDS011;40968;52.342;5.528;2022-09-01T01:43:55;8.10;;;2.40;;
43160;SDS011;40968;52.342;5.528;2022-09-01T01:46:22;9.43;;;2.90;;
43160;SDS011;40968;52.342;5.528;2022-09-01T01:48:50;6.00;;;2.20;;
43160;SDS011;40968;52.342;5.528;2022-09-01T01:51:19;7.40;;;2.05;;
43160;SDS011;40968;52.342;5.528;2022-09-01T01:53:49;8.75;;;2.42;;
43160;SDS011;40968;52.342;5.528;2022-09-01T01:56:16;9.85;;;2.97;;
43160;SDS011;40968;52.342;5.528;2022-09-01T01:58:43;4.75;;;1.92;;
43160;SDS011;40968;52.342;5.528;2022-09-01T02:01:11;5.95;;;2.15;;
43160;SDS011;40968;52.342;5.528;2022-09-01T02:03:37;7.38;;;2.53;;
43160;SDS011;40968;52.342;5.528;2022-09-01T02:06:05;7.32;;;2.40;;
43160;SDS011;40968;52.342;5.528;2022-09-01T02:08:34;5.90;;;2.85;;
43160;SDS011;40968;52.342;5.528;2022-09-01T02:11:02;6.93;;;2.22;;
43160;SDS011;40968;52.342;5.528;2022-09-01T02:13:30;7.57;;;2.85;;
43160;SDS011;40968;52.342;5.528;2022-09-01T02:15:59;10.70;;;2.50;;
43160;SDS011;40968;52.342;5.528;2022-09-01T02:18:30;8.05;;;2.25;;
43160;SDS011;40968;52.342;5.528;2022-09-01T02:21:00;5.90;;;2.60;;
43160;SDS011;40968;52.342;5.528;2022-09-01T02:23:27;8.93;;;2.50;;
43160;SDS011;40968;52.342;5.528;2022-09-01T02:25:54;8.20;;;3.17;;
43160;SDS011;40968;52.342;5.528;2022-09-01T02:28:24;6.35;;;2.10;;
43160;SDS011;40968;52.342;5.528;2022-09-01T02:30:52;7.10;;;2.75;;
43160;SDS011;40968;52.342;5.528;2022-09-01T02:33:21;4.22;;;2.42;;
43160;SDS011;40968;52.342;5.528;2022-09-01T02:35:51;5.90;;;2.67;;
43160;SDS011;40968;52.342;5.528;2022-09-01T02:38:20;6.60;;;2.15;;
43160;SDS011;40968;52.342;5.528;2022-09-01T02:40:50;8.20;;;2.80;;
43160;SDS011;40968;52.342;5.528;2022-09-01T02:43:18;4.38;;;2.25;;
43160;SDS011;40968;52.342;5.528;2022-09-01T02:45:46;8.48;;;2.58;;
43160;SDS011;40968;52.342;5.528;2022-09-01T02:48:15;6.40;;;2.15;;
43160;SDS011;40968;52.342;5.528;2022-09-01T02:50:42;8.73;;;2.22;;
43160;SDS011;40968;52.342;5.528;2022-09-01T02:53:10;7.78;;;2.00;;
43160;SDS011;40968;52.342;5.528;2022-09-01T02:55:39;4.93;;;1.70;;
43160;SDS011;40968;52.342;5.528;2022-09-01T02:58:07;7.82;;;2.53;;
43160;SDS011;40968;52.342;5.528;2022-09-01T03:00:38;10.70;;;2.67;;
43160;SDS011;40968;52.342;5.528;2022-09-01T03:03:05;5.10;;;2.42;;
43160;SDS011;40968;52.342;5.528;2022-09-01T03:05:33;7.78;;;2.40;;
43160;SDS011;40968;52.342;5.528;2022-09-01T03:08:00;7.78;;;2.55;;
43160;SDS011;40968;52.342;5.528;2022-09-01T03:10:31;4.78;;;2.13;;
43160;SDS011;40968;52.342;5.528;2022-09-01T03:13:00;6.97;;;2.00;;
43160;SDS011;40968;52.342;5.528;2022-09-01T03:15:28;4.75;;;2.00;;
43160;SDS011;40968;52.342;5.528;2022-09-01T03:17:57;12.35;;;2.58;;
43160;SDS011;40968;52.342;5.528;2022-09-01T03:20:25;9.63;;;2.80;;
43160;SDS011;40968;52.342;5.528;2022-09-01T03:22:52;5.65;;;2.25;;
43160;SDS011;40968;52.342;5.528;2022-09-01T03:25:21;8.00;;;2.33;;
43160;SDS011;40968;52.342;5.528;2022-09-01T03:27:50;8.23;;;3.25;;
43160;SDS011;40968;52.342;5.528;2022-09-01T03:30:17;5.28;;;2.10;;
43160;SDS011;40968;52.342;5.528;2022-09-01T03:32:44;3.95;;;2.13;;
43160;SDS011;40968;52.342;5.528;2022-09-01T03:35:12;7.70;;;2.05;;
43160;SDS011;40968;52.342;5.528;2022-09-01T03:37:40;4.95;;;1.92;;
43160;SDS011;40968;52.342;5.528;2022-09-01T03:40:09;5.82;;;2.20;;
43160;SDS011;40968;52.342;5.528;2022-09-01T03:42:37;5.72;;;1.92;;
43160;SDS011;40968;52.342;5.528;2022-09-01T03:45:06;5.82;;;2.20;;
43160;SDS011;40968;52.342;5.528;2022-09-01T03:47:36;6.38;;;2.15;;
43160;SDS011;40968;52.342;5.528;2022-09-01T03:50:05;4.25;;;2.28;;
43160;SDS011;40968;52.342;5.528;2022-09-01T03:52:35;5.53;;;1.90;;
43160;SDS011;40968;52.342;5.528;2022-09-01T03:55:05;7.18;;;2.60;;
43160;SDS011;40968;52.342;5.528;2022-09-01T03:57:33;3.30;;;1.83;;
43160;SDS011;40968;52.342;5.528;2022-09-01T04:00:02;5.90;;;1.65;;
43160;SDS011;40968;52.342;5.528;2022-09-01T04:02:45;5.82;;;2.08;;
43160;SDS011;40968;52.342;5.528;2022-09-01T04:05:14;7.63;;;2.23;;
43160;SDS011;40968;52.342;5.528;2022-09-01T04:07:41;5.30;;;2.15;;
43160;SDS011;40968;52.342;5.528;2022-09-01T04:12:39;4.88;;;1.80;;
43160;SDS011;40968;52.342;5.528;2022-09-01T04:15:06;6.55;;;2.20;;
43160;SDS011;40968;52.342;5.528;2022-09-01T04:17:33;4.50;;;2.08;;
43160;SDS011;40968;52.342;5.528;2022-09-01T04:20:20;6.38;;;2.40;;
43160;SDS011;40968;52.342;5.528;2022-09-01T04:22:47;4.38;;;2.08;;
43160;SDS011;40968;52.342;5.528;2022-09-01T04:25:17;5.97;;;2.25;;
43160;SDS011;40968;52.342;5.528;2022-09-01T04:27:47;6.25;;;2.17;;
43160;SDS011;40968;52.342;5.528;2022-09-01T04:30:14;4.93;;;2.20;;
43160;SDS011;40968;52.342;5.528;2022-09-01T04:32:40;6.28;;;2.35;;
43160;SDS011;40968;52.342;5.528;2022-09-01T04:35:10;11.10;;;2.17;;
43160;SDS011;40968;52.342;5.528;2022-09-01T04:37:42;6.93;;;2.73;;
43160;SDS011;40968;52.342;5.528;2022-09-01T04:40:11;5.38;;;2.10;;
43160;SDS011;40968;52.342;5.528;2022-09-01T04:42:39;5.05;;;2.30;;
43160;SDS011;40968;52.342;5.528;2022-09-01T04:45:07;7.43;;;1.90;;
43160;SDS011;40968;52.342;5.528;2022-09-01T04:47:37;6.80;;;2.73;;
43160;SDS011;40968;52.342;5.528;2022-09-01T04:50:06;6.45;;;2.42;;
43160;SDS011;40968;52.342;5.528;2022-09-01T04:52:38;4.80;;;2.22;;
43160;SDS011;40968;52.342;5.528;2022-09-01T04:55:07;9.45;;;2.55;;
43160;SDS011;40968;52.342;5.528;2022-09-01T04:57:41;8.77;;;2.33;;
43160;SDS011;40968;52.342;5.528;2022-09-01T05:00:11;4.22;;;2.40;;
43160;SDS011;40968;52.342;5.528;2022-09-01T05:02:46;8.38;;;2.60;;
43160;SDS011;40968;52.342;5.528;2022-09-01T05:05:15;4.80;;;2.20;;
43160;SDS011;40968;52.342;5.528;2022-09-01T05:07:42;5.43;;;2.25;;
43160;SDS011;40968;52.342;5.528;2022-09-01T05:10:10;7.05;;;2.50;;
43160;SDS011;40968;52.342;5.528;2022-09-01T05:12:37;6.07;;;2.75;;
43160;SDS011;40968;52.342;5.528;2022-09-01T05:15:05;9.43;;;2.80;;
43160;SDS011;40968;52.342;5.528;2022-09-01T05:17:33;7.05;;;2.60;;
43160;SDS011;40968;52.342;5.528;2022-09-01T05:20:03;5.25;;;2.72;;
43160;SDS011;40968;52.342;5.528;2022-09-01T05:22:30;5.50;;;2.15;;
43160;SDS011;40968;52.342;5.528;2022-09-01T05:24:57;6.88;;;2.95;;
43160;SDS011;40968;52.342;5.528;2022-09-01T05:27:29;4.70;;;2.10;;
43160;SDS011;40968;52.342;5.528;2022-09-01T05:29:55;4.53;;;2.60;;
43160;SDS011;40968;52.342;5.528;2022-09-01T05:32:24;7.97;;;2.53;;
43160;SDS011;40968;52.342;5.528;2022-09-01T05:34:51;6.68;;;2.67;;
43160;SDS011;40968;52.342;5.528;2022-09-01T05:37:18;4.80;;;2.25;;
43160;SDS011;40968;52.342;5.528;2022-09-01T05:39:45;6.80;;;2.60;;
43160;SDS011;40968;52.342;5.528;2022-09-01T05:42:11;7.55;;;2.50;;
43160;SDS011;40968;52.342;5.528;2022-09-01T05:44:39;6.72;;;2.70;;
43160;SDS011;40968;52.342;5.528;2022-09-01T05:47:08;8.70;;;2.38;;
43160;SDS011;40968;52.342;5.528;2022-09-01T05:49:36;4.43;;;2.25;;
43160;SDS011;40968;52.342;5.528;2022-09-01T05:52:04;5.95;;;2.30;;
43160;SDS011;40968;52.342;5.528;2022-09-01T05:54:33;6.97;;;2.80;;
43160;SDS011;40968;52.342;5.528;2022-09-01T05:57:00;5.82;;;2.50;;
43160;SDS011;40968;52.342;5.528;2022-09-01T05:59:27;6.90;;;2.70;;
43160;SDS011;40968;52.342;5.528;2022-09-01T06:01:56;5.82;;;2.35;;
43160;SDS011;40968;52.342;5.528;2022-09-01T06:04:25;7.90;;;2.90;;
43160;SDS011;40968;52.342;5.528;2022-09-01T06:06:52;6.82;;;2.42;;
43160;SDS011;40968;52.342;5.528;2022-09-01T06:09:21;10.82;;;3.05;;
43160;SDS011;40968;52.342;5.528;2022-09-01T06:11:48;7.63;;;2.95;;
43160;SDS011;40968;52.342;5.528;2022-09-01T06:14:16;7.82;;;3.05;;
43160;SDS011;40968;52.342;5.528;2022-09-01T06:16:43;4.32;;;2.60;;
43160;SDS011;40968;52.342;5.528;2022-09-01T06:19:12;4.90;;;2.28;;
43160;SDS011;40968;52.342;5.528;2022-09-01T06:21:39;7.07;;;2.88;;
43160;SDS011;40968;52.342;5.528;2022-09-01T06:24:06;6.15;;;2.53;;
43160;SDS011;40968;52.342;5.528;2022-09-01T06:26:33;11.55;;;3.08;;
43160;SDS011;40968;52.342;5.528;2022-09-01T06:29:03;5.80;;;2.85;;
43160;SDS011;40968;52.342;5.528;2022-09-01T06:34:03;11.65;;;2.75;;
43160;SDS011;40968;52.342;5.528;2022-09-01T06:36:33;6.47;;;2.50;;
43160;SDS011;40968;52.342;5.528;2022-09-01T06:39:00;9.00;;;2.92;;
43160;SDS011;40968;52.342;5.528;2022-09-01T06:41:28;8.20;;;2.97;;
43160;SDS011;40968;52.342;5.528;2022-09-01T06:43:55;7.35;;;2.90;;
43160;SDS011;40968;52.342;5.528;2022-09-01T06:46:25;5.97;;;2.55;;
43160;SDS011;40968;52.342;5.528;2022-09-01T06:48:53;11.50;;;2.88;;
43160;SDS011;40968;52.342;5.528;2022-09-01T06:51:23;7.30;;;2.38;;
43160;SDS011;40968;52.342;5.528;2022-09-01T06:53:54;8.85;;;2.92;;
43160;SDS011;40968;52.342;5.528;2022-09-01T06:56:23;6.60;;;2.80;;
43160;SDS011;40968;52.342;5.528;2022-09-01T06:58:54;8.27;;;3.42;;
43160;SDS011;40968;52.342;5.528;2022-09-01T07:01:21;11.05;;;3.00;;
43160;SDS011;40968;52.342;5.528;2022-09-01T07:03:49;5.47;;;3.03;;
43160;SDS011;40968;52.342;5.528;2022-09-01T07:06:18;14.73;;;3.35;;
43160;SDS011;40968;52.342;5.528;2022-09-01T07:08:51;15.15;;;3.42;;
43160;SDS011;40968;52.342;5.528;2022-09-01T07:11:22;9.18;;;2.67;;
43160;SDS011;40968;52.342;5.528;2022-09-01T07:13:51;6.05;;;2.80;;
43160;SDS011;40968;52.342;5.528;2022-09-01T07:16:20;10.07;;;2.90;;
43160;SDS011;40968;52.342;5.528;2022-09-01T07:18:48;8.50;;;2.85;;
43160;SDS011;40968;52.342;5.528;2022-09-01T07:21:16;5.95;;;3.20;;
43160;SDS011;40968;52.342;5.528;2022-09-01T07:23:42;9.65;;;3.53;;
43160;SDS011;40968;52.342;5.528;2022-09-01T07:26:11;9.82;;;3.03;;
43160;SDS011;40968;52.342;5.528;2022-09-01T07:28:42;7.45;;;2.58;;
43160;SDS011;40968;52.342;5.528;2022-09-01T07:31:15;8.65;;;3.05;;
43160;SDS011;40968;52.342;5.528;2022-09-01T07:33:44;8.68;;;2.85;;
43160;SDS011;40968;52.342;5.528;2022-09-01T07:36:13;6.45;;;2.67;;
43160;SDS011;40968;52.342;5.528;2022-09-01T07:38:40;6.82;;;2.67;;
43160;SDS011;40968;52.342;5.528;2022-09-01T07:41:07;11.30;;;3.00;;
43160;SDS011;40968;52.342;5.528;2022-09-01T07:43:38;5.90;;;2.90;;
43160;SDS011;40968;52.342;5.528;2022-09-01T07:46:06;8.32;;;2.90;;
43160;SDS011;40968;52.342;5.528;2022-09-01T07:48:33;9.88;;;2.70;;
43160;SDS011;40968;52.342;5.528;2022-09-01T07:51:00;8.52;;;2.78;;
43160;SDS011;40968;52.342;5.528;2022-09-01T07:53:28;6.35;;;2.55;;
43160;SDS011;40968;52.342;5.528;2022-09-01T07:55:58;4.47;;;2.63;;
43160;SDS011;40968;52.342;5.528;2022-09-01T07:58:27;8.80;;;2.50;;
43160;SDS011;40968;52.342;5.528;2022-09-01T08:00:56;5.70;;;2.50;;
43160;SDS011;40968;52.342;5.528;2022-09-01T08:03:24;5.50;;;2.22;;
43160;SDS011;40968;52.342;5.528;2022-09-01T08:05:51;5.40;;;2.20;;
43160;SDS011;40968;52.342;5.528;2022-09-01T08:08:22;5.63;;;2.25;;
43160;SDS011;40968;52.342;5.528;2022-09-01T08:10:49;5.22;;;2.58;;
43160;SDS011;40968;52.342;5.528;2022-09-01T08:13:16;4.13;;;2.13;;
43160;SDS011;40968;52.342;5.528;2022-09-01T08:15:42;5.68;;;2.20;;
43160;SDS011;40968;52.342;5.528;2022-09-01T08:18:11;4.43;;;1.80;;
43160;SDS011;40968;52.342;5.528;2022-09-01T08:20:38;6.45;;;2.28;;
43160;SDS011;40968;52.342;5.528;2022-09-01T08:23:10;9.05;;;2.20;;
43160;SDS011;40968;52.342;5.528;2022-09-01T08:25:39;6.07;;;2.10;;
43160;SDS011;40968;52.342;5.528;2022-09-01T08:28:08;6.40;;;1.73;;
43160;SDS011;40968;52.342;5.528;2022-09-01T08:30:34;5.45;;;2.17;;
43160;SDS011;40968;52.342;5.528;2022-09-01T08:33:03;4.05;;;1.92;;
43160;SDS011;40968;52.342;5.528;2022-09-01T08:35:31;3.22;;;1.80;;
43160;SDS011;40968;52.342;5.528;2022-09-01T08:37:58;3.55;;;1.95;;
43160;SDS011;40968;52.342;5.528;2022-09-01T08:40:25;5.50;;;1.70;;
43160;SDS011;40968;52.342;5.528;2022-09-01T08:42:53;8.48;;;1.90;;
43160;SDS011;40968;52.342;5.528;2022-09-01T08:45:30;5.95;;;1.80;;
43160;SDS011;40968;52.342;5.528;2022-09-01T08:47:59;4.30;;;1.40;;
43160;SDS011;40968;52.342;5.528;2022-09-01T08:50:35;3.40;;;1.20;;
43160;SDS011;40968;52.342;5.528;2022-09-01T08:53:05;8.17;;;1.27;;
43160;SDS011;40968;52.342;5.528;2022-09-01T08:55:39;6.45;;;1.13;;
43160;SDS011;40968;52.342;5.528;2022-09-01T08:58:08;3.65;;;1.00;;
43160;SDS011;40968;52.342;5.528;2022-09-01T09:00:38;3.28;;;1.30;;
43160;SDS011;40968;52.342;5.528;2022-09-01T09:03:12;2.88;;;1.15;;
43160;SDS011;40968;52.342;5.528;2022-09-01T09:05:56;2.15;;;1.02;;
43160;SDS011;40968;52.342;5.528;2022-09-01T09:08:33;1.35;;;0.70;;
43160;SDS011;40968;52.342;5.528;2022-09-01T09:11:25;3.28;;;1.00;;
43160;SDS011;40968;52.342;5.528;2022-09-01T09:14:06;3.75;;;0.90;;
43160;SDS011;40968;52.342;5.528;2022-09-01T09:16:40;2.15;;;1.23;;
43160;SDS011;40968;52.342;5.528;2022-09-01T09:19:12;1.58;;;0.73;;
43160;SDS011;40968;52.342;5.528;2022-09-01T09:21:46;4.25;;;0.98;;
43160;SDS011;40968;52.342;5.528;2022-09-01T09:24:17;2.78;;;1.10;;
43160;SDS011;40968;52.342;5.528;2022-09-01T09:26:49;6.22;;;0.90;;
43160;SDS011;40968;52.342;5.528;2022-09-01T09:29:16;5.70;;;1.17;;
43160;SDS011;40968;52.342;5.528;2022-09-01T09:31:44;4.68;;;0.90;;
43160;SDS011;40968;52.342;5.528;2022-09-01T09:34:15;1.25;;;0.77;;
43160;SDS011;40968;52.342;5.528;2022-09-01T09:36:43;3.83;;;1.13;;
43160;SDS011;40968;52.342;5.528;2022-09-01T09:39:12;2.70;;;0.85;;
43160;SDS011;40968;52.342;5.528;2022-09-01T09:41:43;3.28;;;0.85;;
43160;SDS011;40968;52.342;5.528;2022-09-01T09:44:26;2.13;;;0.80;;
43160;SDS011;40968;52.342;5.528;2022-09-01T09:46:55;3.47;;;1.00;;
43160;SDS011;40968;52.342;5.528;2022-09-01T09:49:23;2.13;;;0.70;;
43160;SDS011;40968;52.342;5.528;2022-09-01T09:51:51;3.58;;;1.00;;
43160;SDS011;40968;52.342;5.528;2022-09-01T09:54:22;5.75;;;1.00;;
43160;SDS011;40968;52.342;5.528;2022-09-01T09:57:01;3.67;;;1.02;;
43160;SDS011;40968;52.342;5.528;2022-09-01T09:59:32;2.80;;;0.75;;
43160;SDS011;40968;52.342;5.528;2022-09-01T10:02:12;3.65;;;1.13;;
43160;SDS011;40968;52.342;5.528;2022-09-01T10:04:43;2.40;;;1.00;;
43160;SDS011;40968;52.342;5.528;2022-09-01T10:07:22;4.57;;;1.10;;
43160;SDS011;40968;52.342;5.528;2022-09-01T10:12:19;4.82;;;1.05;;
43160;SDS011;40968;52.342;5.528;2022-09-01T10:14:47;5.03;;;0.93;;
43160;SDS011;40968;52.342;5.528;2022-09-01T10:17:19;3.67;;;1.00;;
43160;SDS011;40968;52.342;5.528;2022-09-01T10:19:50;3.35;;;0.70;;
43160;SDS011;40968;52.342;5.528;2022-09-01T10:22:19;2.05;;;1.00;;
43160;SDS011;40968;52.342;5.528;2022-09-01T10:24:47;4.93;;;0.90;;
43160;SDS011;40968;52.342;5.528;2022-09-01T10:27:17;3.03;;;0.70;;
43160;SDS011;40968;52.342;5.528;2022-09-01T10:29:48;1.13;;;0.80;;
43160;SDS011;40968;52.342;5.528;2022-09-01T10:32:19;1.52;;;0.85;;
43160;SDS011;40968;52.342;5.528;2022-09-01T10:34:50;3.05;;;1.00;;
43160;SDS011;40968;52.342;5.528;2022-09-01T10:37:17;3.75;;;0.98;;
43160;SDS011;40968;52.342;5.528;2022-09-01T10:42:56;2.65;;;0.90;;
43160;SDS011;40968;52.342;5.528;2022-09-01T10:45:34;4.93;;;1.00;;
43160;SDS011;40968;52.342;5.528;2022-09-01T10:48:21;2.90;;;0.90;;
43160;SDS011;40968;52.342;5.528;2022-09-01T10:50:52;3.28;;;0.70;;
43160;SDS011;40968;52.342;5.528;2022-09-01T10:53:39;4.50;;;0.80;;
43160;SDS011;40968;52.342;5.528;2022-09-01T10:56:07;3.80;;;1.00;;
43160;SDS011;40968;52.342;5.528;2022-09-01T10:58:44;5.30;;;0.80;;
43160;SDS011;40968;52.342;5.528;2022-09-01T11:07:36;2.33;;;1.00;;
43160;SDS011;40968;52.342;5.528;2022-09-01T11:13:16;2.85;;;0.82;;
43160;SDS011;40968;52.342;5.528;2022-09-01T11:19:14;4.88;;;0.80;;
43160;SDS011;40968;52.342;5.528;2022-09-01T11:22:01;4.53;;;0.90;;
43160;SDS011;40968;52.342;5.528;2022-09-01T11:24:50;3.30;;;0.63;;
43160;SDS011;40968;52.342;5.528;2022-09-01T11:30:40;3.05;;;0.75;;
43160;SDS011;40968;52.342;5.528;2022-09-01T11:33:25;1.85;;;0.80;;
43160;SDS011;40968;52.342;5.528;2022-09-01T11:35:58;11.63;;;1.00;;
43160;SDS011;40968;52.342;5.528;2022-09-01T11:38:26;1.27;;;0.70;;
43160;SDS011;40968;52.342;5.528;2022-09-01T11:40:58;7.43;;;1.02;;
43160;SDS011;40968;52.342;5.528;2022-09-01T11:43:24;1.63;;;0.50;;
43160;SDS011;40968;52.342;5.528;2022-09-01T11:45:55;3.03;;;0.82;;
43160;SDS011;40968;52.342;5.528;2022-09-01T11:48:32;5.15;;;0.98;;
43160;SDS011;40968;52.342;5.528;2022-09-01T11:51:00;2.00;;;1.05;;
43160;SDS011;40968;52.342;5.528;2022-09-01T11:53:28;3.30;;;0.90;;
43160;SDS011;40968;52.342;5.528;2022-09-01T11:55:55;3.60;;;1.00;;
43160;SDS011;40968;52.342;5.528;2022-09-01T11:58:38;3.70;;;1.00;;
43160;SDS011;40968;52.342;5.528;2022-09-01T12:01:13;1.13;;;0.60;;
43160;SDS011;40968;52.342;5.528;2022-09-01T12:03:43;2.63;;;0.77;;
43160;SDS011;40968;52.342;5.528;2022-09-01T12:06:17;3.85;;;1.00;;
43160;SDS011;40968;52.342;5.528;2022-09-01T12:08:50;2.55;;;0.70;;
43160;SDS011;40968;52.342;5.528;2022-09-01T12:11:21;4.07;;;0.88;;
43160;SDS011;40968;52.342;5.528;2022-09-01T12:13:54;3.50;;;0.80;;
43160;SDS011;40968;52.342;5.528;2022-09-01T12:16:23;4.30;;;0.70;;
43160;SDS011;40968;52.342;5.528;2022-09-01T12:18:52;3.00;;;1.15;;
43160;SDS011;40968;52.342;5.528;2022-09-01T12:21:23;1.60;;;0.80;;
43160;SDS011;40968;52.342;5.528;2022-09-01T12:23:51;3.20;;;0.75;;
43160;SDS011;40968;52.342;5.528;2022-09-01T12:26:19;0.98;;;0.85;;
43160;SDS011;40968;52.342;5.528;2022-09-01T12:28:51;3.92;;;1.00;;
43160;SDS011;40968;52.342;5.528;2022-09-01T12:31:20;4.00;;;1.05;;
43160;SDS011;40968;52.342;5.528;2022-09-01T12:33:49;5.32;;;0.90;;
43160;SDS011;40968;52.342;5.528;2022-09-01T12:36:22;3.83;;;1.00;;
43160;SDS011;40968;52.342;5.528;2022-09-01T12:38:51;2.13;;;1.05;;
43160;SDS011;40968;52.342;5.528;2022-09-01T12:41:22;2.95;;;1.00;;
43160;SDS011;40968;52.342;5.528;2022-09-01T12:43:50;5.20;;;1.02;;
43160;SDS011;40968;52.342;5.528;2022-09-01T12:49:17;4.18;;;1.05;;
43160;SDS011;40968;52.342;5.528;2022-09-01T12:51:45;5.72;;;0.82;;
43160;SDS011;40968;52.342;5.528;2022-09-01T12:54:13;3.13;;;1.02;;
43160;SDS011;40968;52.342;5.528;2022-09-01T12:56:45;2.50;;;1.00;;
43160;SDS011;40968;52.342;5.528;2022-09-01T12:59:19;4.82;;;1.00;;
43160;SDS011;40968;52.342;5.528;2022-09-01T13:01:48;3.30;;;0.90;;
43160;SDS011;40968;52.342;5.528;2022-09-01T13:04:22;5.00;;;0.80;;
43160;SDS011;40968;52.342;5.528;2022-09-01T13:06:54;2.42;;;1.10;;
43160;SDS011;40968;52.342;5.528;2022-09-01T13:09:25;5.65;;;1.13;;
43160;SDS011;40968;52.342;5.528;2022-09-01T13:11:51;4.18;;;0.98;;
43160;SDS011;40968;52.342;5.528;2022-09-01T13:14:18;3.78;;;0.88;;
43160;SDS011;40968;52.342;5.528;2022-09-01T13:16:45;5.93;;;1.20;;
43160;SDS011;40968;52.342;5.528;2022-09-01T13:19:12;3.50;;;0.93;;
43160;SDS011;40968;52.342;5.528;2022-09-01T13:21:38;1.52;;;0.80;;
43160;SDS011;40968;52.342;5.528;2022-09-01T13:24:06;5.95;;;1.20;;
43160;SDS011;40968;52.342;5.528;2022-09-01T13:26:33;2.20;;;0.77;;
43160;SDS011;40968;52.342;5.528;2022-09-01T13:29:00;7.70;;;1.40;;
43160;SDS011;40968;52.342;5.528;2022-09-01T13:31:27;3.40;;;1.00;;
43160;SDS011;40968;52.342;5.528;2022-09-01T13:33:55;6.40;;;1.70;;
43160;SDS011;40968;52.342;5.528;2022-09-01T13:36:22;4.57;;;1.05;;
43160;SDS011;40968;52.342;5.528;2022-09-01T13:38:48;2.22;;;0.88;;
43160;SDS011;40968;52.342;5.528;2022-09-01T13:41:16;1.30;;;0.73;;
43160;SDS011;40968;52.342;5.528;2022-09-01T13:43:43;4.22;;;0.90;;
43160;SDS011;40968;52.342;5.528;2022-09-01T13:46:11;3.95;;;0.90;;
43160;SDS011;40968;52.342;5.528;2022-09-01T13:48:38;1.25;;;0.73;;
43160;SDS011;40968;52.342;5.528;2022-09-01T13:51:04;5.22;;;0.90;;
43160;SDS011;40968;52.342;5.528;2022-09-01T13:53:31;2.15;;;0.88;;
43160;SDS011;40968;52.342;5.528;2022-09-01T13:55:57;5.20;;;0.90;;
43160;SDS011;40968;52.342;5.528;2022-09-01T13:58:25;2.10;;;0.90;;
43160;SDS011;40968;52.342;5.528;2022-09-01T14:00:52;3.22;;;0.93;;
43160;SDS011;40968;52.342;5.528;2022-09-01T14:03:19;3.15;;;0.80;;
43160;SDS011;40968;52.342;5.528;2022-09-01T14:05:48;2.65;;;0.90;;
43160;SDS011;40968;52.342;5.528;2022-09-01T14:08:15;2.53;;;0.60;;
43160;SDS011;40968;52.342;5.528;2022-09-01T14:10:44;5.43;;;0.90;;
43160;SDS011;40968;52.342;5.528;2022-09-01T14:13:15;3.17;;;0.80;;
43160;SDS011;40968;52.342;5.528;2022-09-01T14:15:43;1.48;;;0.75;;
43160;SDS011;40968;52.342;5.528;2022-09-01T14:18:10;9.65;;;0.80;;
43160;SDS011;40968;52.342;5.528;2022-09-01T14:20:38;3.10;;;0.95;;
43160;SDS011;40968;52.342;5.528;2022-09-01T14:23:08;4.78;;;0.98;;
43160;SDS011;40968;52.342;5.528;2022-09-01T14:25:36;4.00;;;0.88;;
43160;SDS011;40968;52.342;5.528;2022-09-01T14:28:06;4.32;;;0.95;;
43160;SDS011;40968;52.342;5.528;2022-09-01T14:30:33;1.30;;;0.70;;
43160;SDS011;40968;52.342;5.528;2022-09-01T14:33:00;2.88;;;1.00;;
43160;SDS011;40968;52.342;5.528;2022-09-01T14:35:27;2.92;;;0.77;;
43160;SDS011;40968;52.342;5.528;2022-09-01T14:37:57;7.05;;;1.10;;
43160;SDS011;40968;52.342;5.528;2022-09-01T14:40:24;1.90;;;0.90;;
43160;SDS011;40968;52.342;5.528;2022-09-01T14:42:53;3.13;;;0.90;;
43160;SDS011;40968;52.342;5.528;2022-09-01T14:45:20;3.15;;;0.90;;
43160;SDS011;40968;52.342;5.528;2022-09-01T14:47:51;6.93;;;1.00;;
43160;SDS011;40968;52.342;5.528;2022-09-01T14:50:21;2.15;;;1.00;;
43160;SDS011;40968;52.342;5.528;2022-09-01T14:52:50;2.40;;;0.73;;
43160;SDS011;40968;52.342;5.528;2022-09-01T14:55:18;3.50;;;0.90;;
43160;SDS011;40968;52.342;5.528;2022-09-01T14:57:44;2.97;;;1.00;;
43160;SDS011;40968;52.342;5.528;2022-09-01T15:00:11;2.35;;;0.95;;
43160;SDS011;40968;52.342;5.528;2022-09-01T15:02:38;5.10;;;0.95;;
43160;SDS011;40968;52.342;5.528;2022-09-01T15:05:07;3.90;;;0.80;;
43160;SDS011;40968;52.342;5.528;2022-09-01T15:07:35;4.88;;;1.02;;
43160;SDS011;40968;52.342;5.528;2022-09-01T15:10:02;4.18;;;1.38;;
43160;SDS011;40968;52.342;5.528;2022-09-01T15:12:30;4.22;;;0.90;;
43160;SDS011;40968;52.342;5.528;2022-09-01T15:14:56;2.22;;;0.85;;
43160;SDS011;40968;52.342;5.528;2022-09-01T15:17:23;6.47;;;1.20;;
43160;SDS011;40968;52.342;5.528;2022-09-01T15:19:50;2.50;;;1.08;;
43160;SDS011;40968;52.342;5.528;2022-09-01T15:22:17;5.40;;;1.10;;
43160;SDS011;40968;52.342;5.528;2022-09-01T15:24:45;6.40;;;1.10;;
43160;SDS011;40968;52.342;5.528;2022-09-01T15:27:12;3.17;;;0.85;;
43160;SDS011;40968;52.342;5.528;2022-09-01T15:29:38;3.38;;;1.00;;
43160;SDS011;40968;52.342;5.528;2022-09-01T15:32:11;4.82;;;0.90;;